Time,TemperatureF,DewpointF,PressureIn,WindDirection,WindDirectionDegrees,WindSpeedMPH,WindSpeedGustMPH,Humidity,HourlyPrecipIn,Conditions,Clouds,dailyrainin,SoftwareType,DateUTC
2013-10-06 00:09:00,58.8,56.0,29.76,WNW,285,3.0,7.0,90,0.01,,,0.00,weatherlink.com 1.10,2013-10-06 05:09:00,
2013-10-06 00:24:00,58.8,55.0,29.77,West,265,6.0,15.0,87,0.00,,,0.00,weatherlink.com 1.10,2013-10-06 05:24:00,
2013-10-06 00:39:00,57.9,54.0,29.77,West,281,9.0,11.0,86,0.00,,,0.00,weatherlink.com 1.10,2013-10-06 05:39:00,
2013-10-06 00:54:00,57.2,52.0,29.77,West,269,5.0,12.0,84,0.00,,,0.00,weatherlink.com 1.10,2013-10-06 05:54:00,
2013-10-06 01:09:00,57.0,53.0,29.77,WNW,290,2.0,8.0,87,0.00,,,0.00,weatherlink.com 1.10,2013-10-06 06:09:00,
2013-10-06 01:24:00,56.5,54.0,29.77,WNW,294,2.0,6.0,91,0.01,,,0.01,weatherlink.com 1.10,2013-10-06 06:24:00,
2013-10-06 01:39:00,56.3,54.0,29.77,WNW,284,2.0,7.0,93,0.02,,,0.02,weatherlink.com 1.10,2013-10-06 06:39:00,
2013-10-06 01:54:00,56.1,54.0,29.76,WNW,284,4.0,8.0,93,0.02,,,0.02,weatherlink.com 1.10,2013-10-06 06:54:00,
2013-10-06 02:09:00,55.9,54.0,29.76,West,281,5.0,7.0,93,0.02,,,0.02,weatherlink.com 1.10,2013-10-06 07:09:00,
2013-10-06 02:24:00,55.8,54.0,29.77,WSW,250,6.0,10.0,93,0.01,,,0.02,weatherlink.com 1.10,2013-10-06 07:24:00,
2013-10-06 02:39:00,55.2,53.0,29.77,West,273,6.0,10.0,93,0.01,,,0.03,weatherlink.com 1.10,2013-10-06 07:39:00,
2013-10-06 02:54:00,54.9,53.0,29.77,WSW,256,4.0,10.0,94,0.01,,,0.03,weatherlink.com 1.10,2013-10-06 07:54:00,
2013-10-06 03:24:00,53.9,52.0,29.76,West,262,2.0,4.0,92,0.04,,,0.06,weatherlink.com 1.10,2013-10-06 08:24:00,
2013-10-06 03:39:00,53.7,52.0,29.77,West,277,3.0,5.0,92,0.03,,,0.06,weatherlink.com 1.10,2013-10-06 08:39:00,
2013-10-06 03:54:00,53.9,52.0,29.77,West,273,4.0,7.0,92,0.03,,,0.06,weatherlink.com 1.10,2013-10-06 08:54:00,
2013-10-06 04:09:00,53.9,51.0,29.77,West,265,4.0,6.0,91,0.00,,,0.06,weatherlink.com 1.10,2013-10-06 09:09:00,
2013-10-06 04:24:00,53.7,52.0,29.77,West,269,4.0,4.0,93,0.00,,,0.06,weatherlink.com 1.10,2013-10-06 09:24:00,
2013-10-06 04:39:00,53.6,52.0,29.77,West,264,3.0,4.0,94,0.00,,,0.06,weatherlink.com 1.10,2013-10-06 09:39:00,
2013-10-06 04:54:00,52.8,51.0,29.76,West,273,2.0,7.0,93,0.00,,,0.06,weatherlink.com 1.10,2013-10-06 09:54:00,
2013-10-06 05:09:00,51.8,50.0,29.76,WSW,248,2.0,2.0,94,0.00,,,0.06,weatherlink.com 1.10,2013-10-06 10:09:00,
2013-10-06 05:39:00,51.7,50.0,29.77,WSW,245,3.0,5.0,95,0.00,,,0.06,weatherlink.com 1.10,2013-10-06 10:39:00,
2013-10-06 05:54:00,51.6,50.0,29.77,West,262,4.0,8.0,94,0.00,,,0.06,weatherlink.com 1.10,2013-10-06 10:54:00,
2013-10-06 06:09:00,51.2,49.0,29.75,WSW,257,1.0,4.0,93,0.00,,,0.06,weatherlink.com 1.10,2013-10-06 11:09:00,
2013-10-06 06:24:00,50.7,49.0,29.76,West,264,1.0,3.0,94,0.00,,,0.06,weatherlink.com 1.10,2013-10-06 11:24:00,
2013-10-06 06:40:00,50.0,48.0,29.75,West,264,1.0,3.0,94,0.00,,,0.06,weatherlink.com 1.10,2013-10-06 11:40:00,
2013-10-06 06:55:00,49.0,47.0,29.74,SW,226,0.0,1.0,94,0.00,,,0.06,weatherlink.com 1.10,2013-10-06 11:55:00,
2013-10-06 07:10:00,48.6,47.0,29.75,SW,233,1.0,3.0,95,0.00,,,0.06,weatherlink.com 1.10,2013-10-06 12:10:00,
2013-10-06 07:25:00,48.6,47.0,29.75,WSW,253,2.0,4.0,95,0.00,,,0.06,weatherlink.com 1.10,2013-10-06 12:25:00,
2013-10-06 07:40:00,49.0,47.0,29.75,WSW,256,5.0,6.0,94,0.00,,,0.06,weatherlink.com 1.10,2013-10-06 12:40:00,
2013-10-06 07:55:00,49.2,48.0,29.75,SW,235,5.0,7.0,94,0.00,,,0.06,weatherlink.com 1.10,2013-10-06 12:55:00,
2013-10-06 08:10:00,49.2,48.0,29.75,WSW,252,4.0,6.0,94,0.00,,,0.06,weatherlink.com 1.10,2013-10-06 13:10:00,
2013-10-06 08:25:00,49.2,48.0,29.75,West,263,2.0,5.0,94,0.00,,,0.06,weatherlink.com 1.10,2013-10-06 13:25:00,
2013-10-06 08:40:00,49.7,48.0,29.75,WSW,240,2.0,6.0,93,0.00,,,0.06,weatherlink.com 1.10,2013-10-06 13:40:00,
2013-10-06 08:55:00,50.8,49.0,29.75,WSW,249,6.0,8.0,92,0.00,,,0.06,weatherlink.com 1.10,2013-10-06 13:55:00,
2013-10-06 09:10:00,51.6,48.0,29.74,WSW,255,6.0,10.0,86,0.00,,,0.06,weatherlink.com 1.10,2013-10-06 14:10:00,
2013-10-06 09:25:00,52.2,49.0,29.74,West,269,4.0,10.0,87,0.00,,,0.06,weatherlink.com 1.10,2013-10-06 14:25:00,
2013-10-06 09:40:00,53.0,48.0,29.74,West,270,6.0,12.0,82,0.00,,,0.06,weatherlink.com 1.10,2013-10-06 14:40:00,
2013-10-06 09:55:00,53.0,47.0,29.74,West,269,10.0,11.0,80,0.00,,,0.06,weatherlink.com 1.10,2013-10-06 14:55:00,
2013-10-06 10:25:00,54.8,46.0,29.75,West,259,7.0,12.0,73,0.00,,,0.06,weatherlink.com 1.10,2013-10-06 15:25:00,
2013-10-06 10:40:00,55.8,44.0,29.74,WSW,250,6.0,12.0,65,0.00,,,0.06,weatherlink.com 1.10,2013-10-06 15:40:00,
2013-10-06 10:55:00,56.6,45.0,29.74,WSW,255,7.0,14.0,65,0.00,,,0.06,weatherlink.com 1.10,2013-10-06 15:55:00,
2013-10-06 11:10:00,57.2,45.0,29.73,West,280,7.0,13.0,63,0.00,,,0.06,weatherlink.com 1.10,2013-10-06 16:10:00,
2013-10-06 11:25:00,58.4,45.0,29.73,WSW,255,9.0,14.0,62,0.00,,,0.06,weatherlink.com 1.10,2013-10-06 16:25:00,
2013-10-06 11:40:00,58.7,44.0,29.73,WSW,248,9.0,17.0,59,0.00,,,0.06,weatherlink.com 1.10,2013-10-06 16:40:00,
2013-10-06 11:55:00,58.4,42.0,29.73,WSW,248,10.0,17.0,54,0.00,,,0.06,weatherlink.com 1.10,2013-10-06 16:55:00,
2013-10-06 12:10:00,59.3,42.0,29.72,WSW,243,13.0,16.0,53,0.00,,,0.06,weatherlink.com 1.10,2013-10-06 17:10:00,
2013-10-06 12:25:00,60.0,41.0,29.71,WSW,243,14.0,18.0,50,0.00,,,0.06,weatherlink.com 1.10,2013-10-06 17:25:00,
2013-10-06 12:40:00,60.1,41.0,29.71,SW,225,12.0,19.0,49,0.00,,,0.06,weatherlink.com 1.10,2013-10-06 17:40:00,
2013-10-06 12:55:00,60.5,42.0,29.71,West,263,11.0,19.0,51,0.00,,,0.06,weatherlink.com 1.10,2013-10-06 17:55:00,
2013-10-06 13:10:00,58.8,41.0,29.71,WSW,240,17.0,20.0,52,0.00,,,0.06,weatherlink.com 1.10,2013-10-06 18:10:00,
2013-10-06 13:25:00,57.2,40.0,29.71,West,264,10.0,21.0,54,0.00,,,0.06,weatherlink.com 1.10,2013-10-06 18:25:00,
2013-10-06 13:40:00,56.2,41.0,29.71,West,266,6.0,19.0,58,0.00,,,0.06,weatherlink.com 1.10,2013-10-06 18:40:00,
2013-10-06 13:55:00,55.6,42.0,29.71,WSW,256,9.0,19.0,60,0.00,,,0.06,weatherlink.com 1.10,2013-10-06 18:55:00,
2013-10-06 14:10:00,55.1,42.0,29.71,WSW,249,9.0,18.0,61,0.00,,,0.06,weatherlink.com 1.10,2013-10-06 19:10:00,
2013-10-06 14:25:00,54.1,42.0,29.71,WSW,253,15.0,20.0,63,0.00,,,0.06,weatherlink.com 1.10,2013-10-06 19:25:00,
2013-10-06 14:40:00,53.4,42.0,29.72,West,269,15.0,20.0,65,0.00,,,0.06,weatherlink.com 1.10,2013-10-06 19:40:00,
2013-10-06 14:55:00,52.4,41.0,29.72,WNW,294,10.0,21.0,66,0.00,,,0.06,weatherlink.com 1.10,2013-10-06 19:55:00,
2013-10-06 15:10:00,52.7,41.0,29.73,West,280,14.0,21.0,65,0.00,,,0.06,weatherlink.com 1.10,2013-10-06 20:10:00,
2013-10-06 15:25:00,52.5,41.0,29.73,West,274,12.0,19.0,64,0.00,,,0.06,weatherlink.com 1.10,2013-10-06 20:25:00,
2013-10-06 15:40:00,52.3,40.0,29.73,WSW,243,14.0,23.0,64,0.00,,,0.06,weatherlink.com 1.10,2013-10-06 20:40:00,
2013-10-06 15:56:00,53.2,40.0,29.73,WSW,257,12.0,18.0,62,0.00,,,0.06,weatherlink.com 1.10,2013-10-06 20:56:00,
2013-10-06 16:11:00,52.6,40.0,29.73,West,274,11.0,18.0,63,0.00,,,0.06,weatherlink.com 1.10,2013-10-06 21:11:00,
2013-10-06 16:26:00,53.6,40.0,29.73,WSW,242,11.0,17.0,61,0.00,,,0.06,weatherlink.com 1.10,2013-10-06 21:26:00,
2013-10-06 16:41:00,54.0,40.0,29.73,WSW,257,11.0,17.0,59,0.00,,,0.06,weatherlink.com 1.10,2013-10-06 21:41:00,
2013-10-06 16:56:00,52.6,39.0,29.74,West,281,11.0,17.0,61,0.00,,,0.06,weatherlink.com 1.10,2013-10-06 21:56:00,
2013-10-06 17:11:00,53.0,40.0,29.74,West,273,7.0,16.0,62,0.00,,,0.06,weatherlink.com 1.10,2013-10-06 22:11:00,
2013-10-06 17:26:00,53.0,39.0,29.75,West,269,13.0,19.0,60,0.00,,,0.06,weatherlink.com 1.10,2013-10-06 22:26:00,
2013-10-06 17:41:00,52.0,40.0,29.76,WSW,252,13.0,16.0,63,0.00,,,0.06,weatherlink.com 1.10,2013-10-06 22:41:00,
2013-10-06 17:56:00,50.2,40.0,29.76,West,263,6.0,14.0,68,0.00,,,0.06,weatherlink.com 1.10,2013-10-06 22:56:00,
2013-10-06 18:11:00,49.8,40.0,29.77,West,277,12.0,15.0,69,0.00,,,0.06,weatherlink.com 1.10,2013-10-06 23:11:00,
2013-10-06 18:26:00,49.9,40.0,29.77,West,281,7.0,10.0,70,0.00,,,0.06,weatherlink.com 1.10,2013-10-06 23:26:00,
2013-10-06 18:41:00,50.0,41.0,29.77,SW,233,4.0,9.0,71,0.00,,,0.06,weatherlink.com 1.10,2013-10-06 23:41:00,
2013-10-06 18:56:00,50.0,41.0,29.78,WNW,294,6.0,12.0,71,0.00,,,0.06,weatherlink.com 1.10,2013-10-06 23:56:00,
2013-10-06 19:11:00,49.9,42.0,29.78,WSW,250,5.0,8.0,73,0.00,,,0.06,weatherlink.com 1.10,2013-10-07 00:11:00,
2013-10-06 19:26:00,49.9,42.0,29.77,West,269,9.0,12.0,73,0.00,,,0.06,weatherlink.com 1.10,2013-10-07 00:26:00,
2013-10-06 19:41:00,49.2,42.0,29.78,SW,233,11.0,15.0,76,0.00,,,0.06,weatherlink.com 1.10,2013-10-07 00:41:00,
2013-10-06 20:11:00,48.1,42.0,29.78,West,264,8.0,15.0,80,0.00,,,0.06,weatherlink.com 1.10,2013-10-07 01:11:00,
2013-10-06 20:26:00,48.2,43.0,29.77,West,273,4.0,13.0,81,0.00,,,0.06,weatherlink.com 1.10,2013-10-07 01:26:00,
2013-10-06 20:41:00,47.9,42.0,29.78,West,279,7.0,15.0,81,0.00,,,0.06,weatherlink.com 1.10,2013-10-07 01:41:00,
2013-10-06 20:56:00,46.1,42.0,29.78,WSW,258,5.0,10.0,85,0.00,,,0.06,weatherlink.com 1.10,2013-10-07 01:56:00,
2013-10-06 21:11:00,45.8,42.0,29.78,WSW,256,6.0,10.0,87,0.00,,,0.06,weatherlink.com 1.10,2013-10-07 02:11:00,
2013-10-06 21:26:00,46.3,42.0,29.78,West,277,6.0,9.0,86,0.00,,,0.06,weatherlink.com 1.10,2013-10-07 02:26:00,
2013-10-06 21:42:00,46.5,42.0,29.78,West,266,5.0,10.0,85,0.00,,,0.06,weatherlink.com 1.10,2013-10-07 02:42:00,
2013-10-06 21:56:00,46.3,42.0,29.78,West,278,5.0,10.0,86,0.00,,,0.06,weatherlink.com 1.10,2013-10-07 02:56:00,
2013-10-06 22:11:00,46.3,43.0,29.78,West,276,5.0,8.0,88,0.00,,,0.06,weatherlink.com 1.10,2013-10-07 03:11:00,
2013-10-06 22:26:00,46.4,43.0,29.79,WSW,248,4.0,8.0,89,0.00,,,0.06,weatherlink.com 1.10,2013-10-07 03:26:00,
2013-10-06 22:41:00,46.4,43.0,29.79,WSW,258,4.0,7.0,89,0.00,,,0.06,weatherlink.com 1.10,2013-10-07 03:41:00,
2013-10-06 22:56:00,46.4,44.0,29.79,West,266,5.0,9.0,90,0.00,,,0.06,weatherlink.com 1.10,2013-10-07 03:56:00,
2013-10-06 23:11:00,46.3,44.0,29.79,WNW,288,6.0,9.0,90,0.00,,,0.06,weatherlink.com 1.10,2013-10-07 04:11:00,
2013-10-06 23:26:00,46.0,44.0,29.79,West,280,6.0,8.0,92,0.00,,,0.06,weatherlink.com 1.10,2013-10-07 04:26:00,
2013-10-06 23:41:00,45.7,44.0,29.78,West,270,5.0,8.0,92,0.00,,,0.06,weatherlink.com 1.10,2013-10-07 04:41:00,
2013-10-06 23:56:00,45.5,44.0,29.78,WNW,283,3.0,7.0,93,0.00,,,0.06,weatherlink.com 1.10,2013-10-07 04:56:00,